Terminal Aerodrome Forecast
Issued by NWS

Current Version | Previous Version | Text Only | Print | Product List | Glossary On
Versions: 1 2 3 4 5 6 7 8 9 10 11 12 13 14 15 16
942
FTPA31 PHFO 270529
TAFHMK
TAF
PHMK 270529Z 2706/2806 04008KT P6SM FEW025 SCT035
     FM272000 04018G27KT P6SM SCT030 SCT050
     FM280300 07008KT P6SM FEW025 FEW035=

USA.gov is the U.S. government's official web portal to all federal, state and local government web resources and services.